Time;durP1;ratioP1;P1;durP2;ratioP2;P2;SDS_P1;SDS_P2;PMS_P1;PMS_P2;Temp;Humidity;BMP_temperature;BMP_pressure;BME280_temperature;BME280_humidity;BME280_pressure;Samples;Min_cycle;Max_cycle;Signal;HPM_P1;HPM_P2
2024/03/16 00:00:15;;;;;;;5.03;4.53;;;11.50;99.90;;;;;;5051970;28;20178;-59
2024/03/16 00:02:41;;;;;;;3.63;3.33;;;11.50;99.90;;;;;;5052010;28;20182;-56
2024/03/16 00:05:07;;;;;;;6.33;4.07;;;11.50;99.90;;;;;;5050632;28;20276;-59
2024/03/16 00:07:32;;;;;;;3.87;3.50;;;11.60;99.90;;;;;;5026615;28;20203;-59
2024/03/16 00:09:58;;;;;;;5.67;5.00;;;11.50;99.90;;;;;;5042013;28;20175;-58
2024/03/16 00:12:23;;;;;;;4.60;3.80;;;11.50;99.90;;;;;;5032801;28;20214;-58
2024/03/16 00:14:49;;;;;;;4.17;3.87;;;11.40;99.90;;;;;;5042284;28;20596;-59
2024/03/16 00:17:17;;;;;;;5.27;4.13;;;11.40;99.90;;;;;;5031578;28;20202;-59
2024/03/16 00:19:45;;;;;;;4.80;4.30;;;11.30;99.90;;;;;;5033118;28;20182;-59
2024/03/16 00:22:11;;;;;;;4.50;4.10;;;11.40;99.90;;;;;;5030757;28;20425;-59
2024/03/16 00:24:36;;;;;;;3.57;3.27;;;11.50;99.90;;;;;;5048870;28;20869;-58
2024/03/16 00:27:02;;;;;;;4.93;4.10;;;11.60;99.90;;;;;;5029941;28;20245;-59
2024/03/16 00:29:28;;;;;;;3.80;3.37;;;11.60;99.90;;;;;;5032406;28;20179;-55
2024/03/16 00:31:53;;;;;;;8.53;4.33;;;11.60;99.90;;;;;;5046647;28;20207;-59
2024/03/16 00:34:19;;;;;;;4.03;2.90;;;11.60;99.90;;;;;;5050273;28;20654;-58
2024/03/16 00:36:44;;;;;;;3.27;2.50;;;11.60;99.90;;;;;;5051386;28;20294;-57
2024/03/16 00:39:18;;;;;;;3.73;3.23;;;11.60;99.90;;;;;;5050862;28;20179;-59
2024/03/16 00:41:44;;;;;;;3.03;2.73;;;11.50;99.90;;;;;;5050831;28;20191;-57
2024/03/16 00:44:09;;;;;;;4.27;3.40;;;11.50;99.90;;;;;;5046707;28;20437;-58
2024/03/16 00:46:35;;;;;;;3.17;2.93;;;11.50;99.90;;;;;;5018684;28;20513;-59
2024/03/16 00:49:02;;;;;;;3.23;2.93;;;11.50;99.90;;;;;;5036741;28;20194;-54
2024/03/16 00:51:28;;;;;;;6.10;3.27;;;11.50;99.90;;;;;;5034701;28;20883;-59
2024/03/16 00:53:54;;;;;;;5.43;2.87;;;11.50;99.90;;;;;;5031796;28;20842;-59
2024/03/16 00:56:21;;;;;;;4.67;2.80;;;11.50;99.90;;;;;;5043460;28;20413;-56
2024/03/16 00:58:46;;;;;;;4.20;3.10;;;11.50;99.90;;;;;;5039116;28;20499;-56
2024/03/16 01:01:12;;;;;;;3.33;3.03;;;11.50;99.90;;;;;;5041458;28;20421;-59
2024/03/16 01:03:38;;;;;;;3.87;3.47;;;11.50;99.90;;;;;;5050624;28;20306;-59
2024/03/16 01:06:04;;;;;;;2.83;2.63;;;11.50;99.90;;;;;;5031429;28;20228;-58
2024/03/16 01:08:29;;;;;;;3.77;3.30;;;11.50;99.90;;;;;;5026527;28;20445;-59
2024/03/16 01:10:55;;;;;;;2.77;2.50;;;11.50;99.90;;;;;;5043070;28;20183;-59
2024/03/16 01:13:22;;;;;;;3.13;2.73;;;11.50;99.90;;;;;;5047178;28;21012;-59
2024/03/16 01:15:48;;;;;;;2.90;2.67;;;11.50;99.90;;;;;;5040308;28;20432;-56
2024/03/16 01:18:14;;;;;;;3.17;2.70;;;11.50;99.90;;;;;;5045163;28;21034;-59
2024/03/16 01:20:44;;;;;;;3.40;2.20;;;11.50;99.90;;;;;;5033944;28;20183;-59
2024/03/16 01:23:10;;;;;;;2.80;2.10;;;11.40;99.90;;;;;;5050342;28;20248;-59
2024/03/16 01:25:35;;;;;;;2.70;2.50;;;11.50;99.90;;;;;;5050737;28;20416;-56
2024/03/16 01:28:01;;;;;;;2.90;2.60;;;11.50;99.90;;;;;;5050652;28;20457;-58
2024/03/16 01:30:27;;;;;;;3.10;2.83;;;11.50;99.90;;;;;;5037234;28;20570;-55
2024/03/16 01:32:52;;;;;;;3.10;2.90;;;11.60;99.90;;;;;;5037673;28;20212;-58
2024/03/16 01:35:18;;;;;;;3.10;2.70;;;11.60;99.90;;;;;;5029597;28;20214;-59
2024/03/16 01:37:44;;;;;;;2.60;2.40;;;11.60;99.90;;;;;;5050167;28;20206;-57
2024/03/16 01:40:09;;;;;;;5.30;2.30;;;11.60;99.90;;;;;;5049754;28;20236;-58
2024/03/16 01:42:35;;;;;;;3.50;3.20;;;11.70;99.90;;;;;;5040329;28;20191;-57
2024/03/16 01:45:04;;;;;;;4.40;2.40;;;11.70;99.90;;;;;;5035888;28;20270;-58
2024/03/16 01:47:31;;;;;;;5.10;3.43;;;11.70;99.90;;;;;;5033783;28;20454;-56
2024/03/16 01:49:57;;;;;;;3.13;2.10;;;11.70;99.90;;;;;;5045555;28;20475;-59
2024/03/16 01:52:23;;;;;;;3.33;2.40;;;11.70;99.90;;;;;;5031937;28;20460;-58
2024/03/16 01:54:49;;;;;;;4.10;2.17;;;11.70;99.90;;;;;;5031797;28;20424;-58
2024/03/16 01:57:14;;;;;;;4.63;2.17;;;11.70;99.90;;;;;;5041345;28;20700;-59
2024/03/16 01:59:41;;;;;;;4.13;3.07;;;11.70;99.90;;;;;;5049588;28;20713;-59
2024/03/16 02:02:34;;;;;;;2.73;2.10;;;11.70;99.90;;;;;;5042269;28;20186;-56
2024/03/16 02:05:00;;;;;;;3.93;2.40;;;11.70;99.90;;;;;;5036360;28;20959;-58
2024/03/16 02:07:26;;;;;;;3.43;2.50;;;11.70;99.90;;;;;;5049490;28;20449;-57
2024/03/16 02:09:52;;;;;;;3.10;2.60;;;11.70;99.90;;;;;;5037592;28;20732;-55
2024/03/16 02:12:18;;;;;;;2.53;2.30;;;11.70;99.90;;;;;;5032576;28;20459;-58
2024/03/16 02:14:44;;;;;;;2.03;1.90;;;11.70;99.90;;;;;;5032331;28;20183;-58
2024/03/16 02:17:11;;;;;;;2.73;2.23;;;11.70;99.90;;;;;;5032544;28;20442;-58
2024/03/16 02:19:37;;;;;;;2.20;2.00;;;11.70;99.90;;;;;;5034149;28;20191;-56
2024/03/16 02:22:05;;;;;;;3.30;2.37;;;11.70;99.90;;;;;;5031047;28;20422;-58
2024/03/16 02:24:32;;;;;;;3.27;2.50;;;11.70;99.90;;;;;;5014370;28;20418;-58
2024/03/16 02:26:59;;;;;;;2.40;2.20;;;11.70;99.90;;;;;;5033047;28;20450;-58
2024/03/16 02:29:27;;;;;;;2.13;2.03;;;11.70;99.90;;;;;;5032878;28;20516;-58
2024/03/16 02:31:55;;;;;;;2.33;2.13;;;11.70;99.90;;;;;;5034154;28;20810;-57
2024/03/16 02:34:21;;;;;;;4.73;2.90;;;11.70;99.90;;;;;;5021196;28;20468;-58
2024/03/16 02:36:47;;;;;;;2.33;2.13;;;11.70;99.90;;;;;;5033258;28;20447;-57
2024/03/16 02:39:13;;;;;;;2.37;2.10;;;11.70;99.90;;;;;;5031970;28;20207;-58
2024/03/16 02:41:39;;;;;;;3.07;2.77;;;11.70;99.90;;;;;;5034583;28;20457;-55
2024/03/16 02:44:05;;;;;;;3.13;2.60;;;11.70;99.90;;;;;;5032744;28;20787;-58
2024/03/16 02:46:31;;;;;;;2.27;2.07;;;11.70;99.90;;;;;;5032658;28;20194;-58
2024/03/16 02:48:56;;;;;;;2.00;1.90;;;11.70;99.90;;;;;;5032622;28;20204;-58
2024/03/16 02:51:22;;;;;;;2.70;2.30;;;11.70;99.90;;;;;;5028299;28;20509;-59
2024/03/16 02:53:51;;;;;;;2.33;2.10;;;11.70;99.90;;;;;;5035335;28;20240;-58
2024/03/16 02:56:17;;;;;;;3.73;2.63;;;11.70;99.90;;;;;;5032873;28;20187;-59
2024/03/16 02:58:42;;;;;;;2.40;2.20;;;11.60;99.90;;;;;;5032712;28;20564;-57
2024/03/16 03:01:08;;;;;;;2.50;2.30;;;11.60;99.90;;;;;;5032247;28;20184;-57
2024/03/16 03:03:34;;;;;;;3.10;2.80;;;11.60;99.90;;;;;;5033595;28;20557;-57
2024/03/16 03:05:59;;;;;;;3.23;2.17;;;11.50;99.90;;;;;;5035176;28;20453;-57
2024/03/16 03:08:25;;;;;;;2.33;2.13;;;11.40;99.90;;;;;;5029525;28;20207;-58
2024/03/16 03:10:50;;;;;;;2.73;2.30;;;11.40;99.90;;;;;;5032632;28;20253;-57
2024/03/16 03:13:16;;;;;;;3.10;2.33;;;11.40;99.90;;;;;;5031812;28;20897;-57
2024/03/16 03:15:42;;;;;;;2.37;2.07;;;11.30;99.90;;;;;;5033272;28;20266;-56
2024/03/16 03:18:07;;;;;;;2.67;2.43;;;11.30;99.90;;;;;;5032371;28;20207;-57
2024/03/16 03:20:33;;;;;;;4.53;3.90;;;11.20;99.90;;;;;;5032331;28;20184;-58
2024/03/16 03:22:59;;;;;;;5.70;3.03;;;11.10;99.90;;;;;;5025663;28;20180;-57
2024/03/16 03:25:24;;;;;;;5.67;4.20;;;11.10;99.90;;;;;;5032559;28;20476;-56
2024/03/16 03:27:50;;;;;;;8.67;4.73;;;11.10;99.90;;;;;;5033644;28;20198;-56
2024/03/16 03:30:16;;;;;;;5.90;3.57;;;11.10;99.90;;;;;;5032827;28;20193;-57
2024/03/16 03:32:41;;;;;;;6.33;3.90;;;11.10;99.90;;;;;;5026824;28;20254;-57
2024/03/16 03:35:07;;;;;;;7.13;5.10;;;11.10;99.90;;;;;;5031214;28;20225;-56
2024/03/16 03:37:33;;;;;;;6.40;4.63;;;11.10;99.90;;;;;;5034098;28;20204;-57
2024/03/16 03:39:58;;;;;;;6.17;4.70;;;11.10;99.90;;;;;;5036408;28;20214;-59
2024/03/16 03:42:29;;;;;;;7.33;4.30;;;11.10;99.90;;;;;;5032294;28;20230;-59
2024/03/16 03:45:38;;;;;;;6.80;4.37;;;11.10;99.90;;;;;;5032563;28;20215;-59
2024/03/16 03:48:00;;;;;;;4.07;3.33;;;11.10;99.90;;;;;;5023323;28;20473;-56
2024/03/16 03:50:29;;;;;;;3.87;2.43;;;11.10;99.90;;;;;;5022747;28;20442;-55
2024/03/16 03:52:55;;;;;;;10.50;4.70;;;11.00;99.90;;;;;;5032093;28;20490;-58
2024/03/16 03:55:21;;;;;;;5.27;3.60;;;11.00;99.90;;;;;;5031983;28;20924;-59
2024/03/16 03:57:47;;;;;;;5.43;4.07;;;11.00;99.90;;;;;;5032502;28;20520;-59
2024/03/16 04:00:13;;;;;;;4.10;3.70;;;11.00;99.90;;;;;;5030209;28;20438;-56
2024/03/16 04:02:39;;;;;;;5.87;4.60;;;11.00;99.90;;;;;;5031949;28;20242;-59
2024/03/16 04:05:05;;;;;;;3.30;2.87;;;11.10;99.90;;;;;;5031642;28;20430;-59
2024/03/16 04:07:31;;;;;;;4.33;3.10;;;11.10;99.90;;;;;;5031983;28;20681;-59
2024/03/16 04:09:56;;;;;;;4.00;3.57;;;11.10;99.90;;;;;;5032324;28;20900;-55
2024/03/16 04:12:22;;;;;;;4.13;3.73;;;11.20;99.90;;;;;;5032020;28;20256;-59
2024/03/16 04:14:48;;;;;;;7.37;3.97;;;11.10;99.90;;;;;;5032685;28;20171;-59
2024/03/16 04:17:14;;;;;;;3.53;3.03;;;11.20;99.90;;;;;;5030128;28;20708;-59
2024/03/16 04:19:39;;;;;;;4.13;3.57;;;11.20;99.90;;;;;;5033270;28;20509;-58
2024/03/16 04:22:05;;;;;;;3.40;2.27;;;11.20;99.90;;;;;;5032804;28;20426;-59
2024/03/16 04:24:30;;;;;;;4.97;2.63;;;11.10;99.90;;;;;;5032125;28;20179;-58
2024/03/16 04:26:56;;;;;;;5.10;2.73;;;11.10;99.90;;;;;;5032308;28;20199;-59
2024/03/16 04:29:22;;;;;;;2.60;2.10;;;11.20;99.90;;;;;;5031614;28;20219;-59
2024/03/16 04:31:47;;;;;;;6.80;2.30;;;11.20;99.90;;;;;;5031683;28;20242;-59
2024/03/16 04:34:13;;;;;;;2.33;2.13;;;11.20;99.90;;;;;;5027262;28;20183;-58
2024/03/16 04:36:39;;;;;;;3.07;2.40;;;11.10;99.90;;;;;;5031676;28;20202;-58
2024/03/16 04:39:05;;;;;;;2.90;2.27;;;11.10;99.90;;;;;;5039816;28;20578;-58
2024/03/16 04:41:30;;;;;;;2.13;1.93;;;11.00;99.90;;;;;;5031793;28;20175;-59
2024/03/16 04:43:56;;;;;;;3.87;2.33;;;11.00;99.90;;;;;;5031660;28;20438;-58
2024/03/16 04:46:23;;;;;;;3.60;3.30;;;11.00;99.90;;;;;;5031590;28;20271;-59
2024/03/16 04:48:48;;;;;;;7.30;5.33;;;10.90;99.90;;;;;;5031700;28;20430;-59
2024/03/16 04:51:14;;;;;;;5.70;4.77;;;10.90;99.90;;;;;;5027010;28;20442;-59
2024/03/16 04:53:40;;;;;;;6.43;4.97;;;10.80;99.90;;;;;;5031289;28;20282;-59
2024/03/16 04:56:06;;;;;;;5.37;4.87;;;10.80;99.90;;;;;;5031043;28;20418;-59
2024/03/16 04:58:32;;;;;;;7.80;4.47;;;10.70;99.90;;;;;;5031339;28;20187;-58
2024/03/16 05:01:00;;;;;;;3.77;3.47;;;10.70;99.90;;;;;;5031328;28;20548;-57
2024/03/16 05:03:26;;;;;;;4.00;3.60;;;10.70;99.90;;;;;;5030965;28;20176;-59
2024/03/16 05:05:52;;;;;;;4.90;3.80;;;10.70;99.90;;;;;;5031026;28;20797;-59
2024/03/16 05:08:18;;;;;;;6.90;3.00;;;10.60;99.90;;;;;;5027429;28;20453;-58
2024/03/16 05:10:50;;;;;;;4.03;2.90;;;10.60;99.90;;;;;;5030659;28;20179;-59
2024/03/16 05:13:15;;;;;;;3.23;2.97;;;10.70;99.90;;;;;;5028921;28;20220;-59
2024/03/16 05:15:41;;;;;;;4.43;2.73;;;10.70;99.90;;;;;;5031069;28;20419;-55
2024/03/16 05:18:06;;;;;;;3.93;2.73;;;10.70;99.90;;;;;;5030977;28;20217;-58
2024/03/16 05:20:32;;;;;;;2.90;2.70;;;10.60;99.90;;;;;;5031730;28;20688;-58
2024/03/16 05:22:57;;;;;;;3.63;2.50;;;10.60;99.90;;;;;;5033361;28;20183;-57
2024/03/16 05:25:23;;;;;;;5.57;2.17;;;10.60;99.90;;;;;;5035841;28;20266;-59
2024/03/16 05:27:48;;;;;;;4.67;2.10;;;10.50;99.90;;;;;;5036554;28;20677;-59
2024/03/16 05:30:15;;;;;;;2.40;2.20;;;10.50;99.90;;;;;;5027942;28;20226;-58
2024/03/16 05:32:41;;;;;;;2.93;2.30;;;10.50;99.90;;;;;;5027808;28;20258;-58
2024/03/16 05:35:08;;;;;;;4.90;2.07;;;10.50;99.90;;;;;;5030080;28;20932;-59
2024/03/16 05:37:35;;;;;;;2.87;2.57;;;10.50;99.90;;;;;;5033015;28;20208;-59
2024/03/16 05:40:01;;;;;;;1.80;1.70;;;10.50;99.90;;;;;;5030429;28;20476;-59
2024/03/16 05:42:27;;;;;;;2.20;2.00;;;10.50;99.90;;;;;;5030885;28;20794;-59
2024/03/16 05:44:52;;;;;;;2.43;1.90;;;10.60;99.90;;;;;;5030938;28;20422;-57
2024/03/16 05:47:21;;;;;;;2.23;2.03;;;10.60;99.90;;;;;;5030660;28;20214;-58
2024/03/16 05:49:47;;;;;;;2.93;2.17;;;10.60;99.90;;;;;;5022167;28;20192;-58
2024/03/16 05:52:13;;;;;;;2.73;2.17;;;10.70;99.90;;;;;;5031869;28;20488;-58
2024/03/16 05:54:38;;;;;;;2.40;2.20;;;10.70;99.90;;;;;;5034663;28;20446;-58
2024/03/16 05:57:04;;;;;;;1.80;1.67;;;10.70;99.90;;;;;;5033123;28;20203;-58
2024/03/16 05:59:30;;;;;;;3.83;2.57;;;10.70;99.90;;;;;;5028727;28;20217;-58
2024/03/16 06:01:55;;;;;;;3.70;2.23;;;10.80;99.90;;;;;;5028379;28;20813;-59
2024/03/16 06:04:21;;;;;;;3.80;2.00;;;10.80;99.90;;;;;;5028348;28;20199;-58
2024/03/16 06:06:47;;;;;;;2.90;2.40;;;10.80;99.90;;;;;;5026856;28;20200;-58
2024/03/16 06:09:13;;;;;;;5.50;2.10;;;10.90;99.90;;;;;;5029588;28;20582;-59
2024/03/16 06:11:38;;;;;;;2.60;2.40;;;10.90;99.90;;;;;;5034314;28;20262;-58
2024/03/16 06:14:04;;;;;;;2.53;1.87;;;10.90;99.90;;;;;;5032654;28;20437;-59
2024/03/16 06:16:30;;;;;;;3.40;2.00;;;11.00;99.90;;;;;;5034008;28;20194;-57
2024/03/16 06:18:56;;;;;;;3.63;2.00;;;11.00;99.90;;;;;;5030599;28;20251;-55
2024/03/16 06:21:22;;;;;;;3.20;1.40;;;11.10;99.90;;;;;;5029408;28;20857;-58
2024/03/16 06:23:48;;;;;;;3.93;2.03;;;11.20;99.90;;;;;;5013207;28;20708;-60
2024/03/16 06:26:19;;;;;;;4.67;2.20;;;11.40;99.90;;;;;;5034055;28;20182;-53
2024/03/16 06:28:54;;;;;;;2.30;1.40;;;11.80;99.90;;;;;;5034770;28;20419;-56
2024/03/16 06:31:32;;;;;;;2.07;1.50;;;12.10;99.90;;;;;;5028208;28;20427;-58
2024/03/16 06:34:04;;;;;;;8.13;1.47;;;12.20;99.90;;;;;;5027205;28;20450;-59
2024/03/16 06:36:31;;;;;;;5.53;1.63;;;12.50;99.90;;;;;;5028942;28;20438;-58
2024/03/16 06:38:56;;;;;;;3.13;1.93;;;12.60;99.90;;;;;;5030159;28;20437;-57
2024/03/16 06:41:22;;;;;;;1.87;1.50;;;12.60;99.90;;;;;;5028015;28;20427;-59
2024/03/16 06:43:48;;;;;;;5.40;1.90;;;12.50;99.90;;;;;;5029859;28;20208;-60
2024/03/16 06:46:14;;;;;;;2.70;1.43;;;12.60;99.90;;;;;;5027771;28;20255;-61
2024/03/16 06:48:39;;;;;;;2.60;1.30;;;12.70;99.90;;;;;;5015247;28;20237;-59
2024/03/16 06:51:05;;;;;;;2.13;1.23;;;12.30;99.90;;;;;;5027457;28;20491;-57
2024/03/16 06:53:31;;;;;;;1.83;1.57;;;12.20;99.90;;;;;;5028359;28;20209;-54
2024/03/16 06:55:56;;;;;;;2.87;1.60;;;12.40;99.90;;;;;;5033314;28;20518;-61
2024/03/16 06:58:22;;;;;;;5.43;1.73;;;12.20;99.90;;;;;;5033103;28;20233;-56
2024/03/16 07:00:48;;;;;;;4.20;1.77;;;12.30;99.90;;;;;;5033211;28;20172;-56
2024/03/16 07:03:15;;;;;;;1.77;1.67;;;12.20;99.90;;;;;;5033077;28;20837;-60
2024/03/16 07:05:41;;;;;;;2.30;1.80;;;12.20;99.90;;;;;;5033259;28;20649;-59
2024/03/16 07:08:10;;;;;;;3.43;1.70;;;12.30;99.90;;;;;;5028371;28;20508;-58
2024/03/16 07:10:39;;;;;;;4.57;1.70;;;12.20;99.90;;;;;;5030668;28;20510;-56
2024/03/16 07:13:05;;;;;;;5.23;2.53;;;12.20;99.90;;;;;;5031680;28;20466;-59
2024/03/16 07:15:34;;;;;;;1.67;1.57;;;12.50;99.90;;;;;;5030193;28;20515;-59
2024/03/16 07:18:00;;;;;;;5.27;1.67;;;12.20;99.90;;;;;;5029230;28;20550;-58
2024/03/16 07:20:26;;;;;;;2.33;2.00;;;12.30;99.90;;;;;;5022092;28;20438;-57
2024/03/16 07:22:53;;;;;;;2.13;1.50;;;12.40;99.90;;;;;;5032458;28;20768;-58
2024/03/16 07:25:19;;;;;;;2.37;1.53;;;12.40;99.90;;;;;;5032321;28;20216;-56
2024/03/16 07:27:45;;;;;;;3.70;2.17;;;12.30;99.90;;;;;;5059742;22;20478;-64
2024/03/16 07:30:11;;;;;;;2.50;1.83;;;12.40;99.90;;;;;;5012456;28;21015;-59
2024/03/16 07:32:36;;;;;;;4.87;1.73;;;12.40;99.90;;;;;;5010134;28;20292;-61
2024/03/16 07:35:06;;;;;;;4.43;2.13;;;12.20;99.90;;;;;;5011388;28;20183;-63
2024/03/16 07:37:32;;;;;;;2.20;1.43;;;12.20;99.90;;;;;;5006384;28;20260;-60
2024/03/16 07:39:58;;;;;;;6.70;2.30;;;12.10;99.90;;;;;;5009708;28;20439;-59
2024/03/16 07:42:23;;;;;;;3.13;1.70;;;12.10;99.90;;;;;;5010350;28;20491;-61
2024/03/16 07:44:49;;;;;;;3.43;2.07;;;12.20;99.90;;;;;;5010346;28;20180;-60
2024/03/16 07:47:15;;;;;;;5.73;2.07;;;12.20;99.90;;;;;;5010079;28;20216;-61
2024/03/16 07:49:41;;;;;;;3.63;1.70;;;12.30;99.90;;;;;;5010033;28;20270;-62
2024/03/16 07:52:07;;;;;;;4.50;2.20;;;12.40;99.90;;;;;;5010084;28;20462;-64
2024/03/16 07:54:34;;;;;;;1.43;1.33;;;12.50;99.90;;;;;;5003811;28;20220;-66
2024/03/16 07:57:00;;;;;;;5.30;1.93;;;12.60;99.90;;;;;;5008707;28;20428;-61
2024/03/16 07:59:26;;;;;;;1.70;1.60;;;12.40;99.90;;;;;;4991676;28;21143;-60
2024/03/16 08:01:52;;;;;;;2.77;1.73;;;12.20;99.90;;;;;;5010255;28;20419;-57
2024/03/16 08:04:18;;;;;;;2.10;1.60;;;12.40;99.90;;;;;;5010171;28;20211;-58
2024/03/16 08:06:43;;;;;;;6.97;1.77;;;12.40;99.90;;;;;;5010081;28;20455;-61
2024/03/16 08:09:11;;;;;;;4.60;2.00;;;12.60;99.90;;;;;;5009720;28;20263;-59
2024/03/16 08:11:37;;;;;;;4.57;2.10;;;12.60;99.90;;;;;;5009292;28;20328;-62
2024/03/16 08:14:05;;;;;;;2.03;1.83;;;12.60;99.90;;;;;;5004516;28;20444;-60
2024/03/16 08:16:31;;;;;;;3.53;1.80;;;12.50;99.90;;;;;;5009527;28;20427;-62
2024/03/16 08:18:56;;;;;;;6.83;1.67;;;12.50;99.90;;;;;;5009686;28;20447;-61
2024/03/16 08:21:22;;;;;;;3.00;1.70;;;12.40;99.90;;;;;;5009579;28;20218;-60
2024/03/16 08:23:47;;;;;;;6.10;1.90;;;12.40;99.90;;;;;;5009435;28;20176;-59
2024/03/16 08:26:13;;;;;;;2.60;1.67;;;12.50;99.90;;;;;;5009492;28;20239;-64
2024/03/16 08:28:39;;;;;;;3.20;1.60;;;12.40;99.90;;;;;;5005891;28;20207;-61
2024/03/16 08:31:08;;;;;;;6.07;2.37;;;12.40;99.90;;;;;;5008280;28;20240;-61
2024/03/16 08:33:33;;;;;;;3.57;1.80;;;12.40;99.90;;;;;;5009517;28;20572;-60
2024/03/16 08:35:59;;;;;;;4.60;1.93;;;12.50;99.90;;;;;;5006124;28;20553;-61
2024/03/16 08:38:24;;;;;;;5.73;2.10;;;12.60;99.90;;;;;;5003898;28;20211;-62
2024/03/16 08:40:50;;;;;;;2.87;1.77;;;12.50;99.90;;;;;;5008581;28;20211;-60
2024/03/16 08:43:16;;;;;;;1.80;1.63;;;12.50;99.90;;;;;;5009794;28;20635;-61
2024/03/16 08:45:42;;;;;;;4.60;1.90;;;12.50;99.90;;;;;;5009657;28;20258;-62
2024/03/16 08:48:08;;;;;;;3.13;1.43;;;12.70;99.90;;;;;;5009812;28;20208;-61
2024/03/16 08:50:34;;;;;;;3.40;2.23;;;12.80;99.90;;;;;;5009426;28;20433;-64
2024/03/16 08:53:00;;;;;;;1.77;1.37;;;12.90;99.90;;;;;;5009646;28;20283;-62
2024/03/16 08:55:26;;;;;;;4.67;1.90;;;12.70;99.90;;;;;;5005169;28;20542;-62
2024/03/16 08:57:52;;;;;;;2.37;1.50;;;12.80;99.90;;;;;;5009392;28;20510;-63
2024/03/16 09:00:18;;;;;;;2.27;2.07;;;12.70;99.90;;;;;;5009679;28;20500;-62
2024/03/16 09:02:44;;;;;;;2.50;1.63;;;12.90;99.90;;;;;;5009335;28;20206;-61
2024/03/16 09:05:13;;;;;;;1.60;1.30;;;13.00;99.90;;;;;;5009216;28;20414;-61
2024/03/16 09:07:39;;;;;;;2.40;1.57;;;13.20;99.90;;;;;;5009722;28;20524;-55
2024/03/16 09:10:10;;;;;;;5.43;1.70;;;13.00;99.90;;;;;;5009388;28;20536;-62
2024/03/16 09:12:36;;;;;;;3.53;1.50;;;13.00;99.90;;;;;;5005521;28;20270;-64
2024/03/16 09:15:05;;;;;;;3.37;1.40;;;13.00;99.90;;;;;;5003810;28;20449;-65
2024/03/16 09:17:33;;;;;;;1.60;1.40;;;13.10;99.90;;;;;;5004568;28;20430;-59
2024/03/16 09:19:58;;;;;;;2.13;1.47;;;13.30;99.90;;;;;;5003994;28;20538;-62
2024/03/16 09:22:24;;;;;;;5.77;1.50;;;14.00;99.90;;;;;;5003852;28;20516;-61
2024/03/16 09:24:50;;;;;;;5.03;1.60;;;13.80;99.90;;;;;;5002859;28;20999;-60
2024/03/16 09:27:15;;;;;;;3.47;1.30;;;14.00;99.90;;;;;;5011680;28;20457;-59
2024/03/16 09:29:43;;;;;;;3.67;1.90;;;14.00;99.90;;;;;;5012760;28;20282;-57
2024/03/16 09:32:09;;;;;;;5.60;1.60;;;14.30;99.90;;;;;;5012864;28;20235;-59
2024/03/16 09:34:35;;;;;;;3.10;1.53;;;14.20;99.90;;;;;;5012752;28;20837;-60
2024/03/16 09:37:01;;;;;;;2.17;1.80;;;14.80;99.90;;;;;;5013083;28;20490;-60
2024/03/16 09:39:26;;;;;;;1.87;1.40;;;15.10;99.90;;;;;;5012763;28;20205;-60
2024/03/16 09:41:52;;;;;;;2.03;1.30;;;15.40;99.90;;;;;;5012963;28;20575;-60
2024/03/16 09:44:18;;;;;;;2.73;1.20;;;15.70;99.90;;;;;;5008209;28;20748;-61
2024/03/16 09:46:45;;;;;;;1.53;1.43;;;15.40;99.90;;;;;;5011871;28;20658;-62
2024/03/16 09:49:12;;;;;;;3.20;1.67;;;15.00;99.90;;;;;;5012731;28;20494;-61
2024/03/16 09:51:38;;;;;;;1.80;1.50;;;14.80;99.90;;;;;;5012041;28;20519;-62
2024/03/16 09:54:10;;;;;;;3.13;1.87;;;14.80;99.90;;;;;;5012798;28;20577;-62
2024/03/16 09:56:36;;;;;;;2.67;1.70;;;15.00;99.90;;;;;;5012460;28;20266;-62
2024/03/16 09:59:06;;;;;;;2.93;1.77;;;15.20;99.90;;;;;;5007656;28;20993;-62
2024/03/16 10:01:34;;;;;;;3.00;1.77;;;15.20;99.90;;;;;;5006074;28;20484;-64
2024/03/16 10:04:00;;;;;;;4.03;2.63;;;15.60;99.90;;;;;;5007775;28;21001;-63
2024/03/16 10:06:25;;;;;;;6.17;1.80;;;16.00;99.90;;;;;;5012285;28;20424;-63
2024/03/16 10:09:15;;;;;;;2.57;2.10;;;15.70;99.90;;;;;;5009721;28;20219;-59
2024/03/16 10:11:43;;;;;;;3.70;1.70;;;15.50;99.90;;;;;;5011623;28;20245;-58
2024/03/16 10:14:11;;;;;;;6.33;2.30;;;15.30;99.90;;;;;;5010763;28;21068;-60
2024/03/16 10:16:40;;;;;;;3.47;2.70;;;15.50;99.90;;;;;;5012280;28;20427;-65
2024/03/16 10:19:10;;;;;;;4.10;2.40;;;15.10;99.90;;;;;;5008294;28;20467;-68
2024/03/16 10:21:36;;;;;;;3.80;2.90;;;15.10;99.90;;;;;;5004394;28;20434;-63
2024/03/16 10:24:02;;;;;;;3.63;2.33;;;15.00;99.90;;;;;;5010840;28;20425;-64
2024/03/16 10:26:30;;;;;;;4.43;2.73;;;14.90;99.90;;;;;;5011345;28;20410;-63
2024/03/16 10:29:01;;;;;;;6.10;3.93;;;14.60;99.90;;;;;;5011223;28;20219;-64
2024/03/16 10:31:29;;;;;;;5.30;3.70;;;14.60;99.90;;;;;;5011298;28;20416;-59
2024/03/16 10:33:57;;;;;;;7.50;4.00;;;14.10;99.90;;;;;;5011446;28;20508;-59
2024/03/16 10:36:25;;;;;;;6.23;3.57;;;14.00;99.90;;;;;;5010761;28;20455;-61
2024/03/16 10:38:53;;;;;;;3.13;2.60;;;13.90;99.90;;;;;;5005400;28;20506;-61
2024/03/16 10:41:19;;;;;;;3.67;3.33;;;13.70;99.90;;;;;;5011354;28;20426;-62
2024/03/16 10:43:45;;;;;;;3.93;3.03;;;13.20;99.90;;;;;;5011181;28;20463;-61
2024/03/16 10:46:15;;;;;;;6.90;3.80;;;12.90;99.90;;;;;;5011259;28;20431;-61
2024/03/16 10:48:45;;;;;;;3.60;3.30;;;13.20;99.90;;;;;;5011297;28;20811;-61
2024/03/16 10:51:17;;;;;;;5.20;3.20;;;13.10;99.90;;;;;;5005755;28;20441;-61
2024/03/16 10:53:42;;;;;;;5.93;4.47;;;12.90;99.90;;;;;;5004980;28;20518;-63
2024/03/16 10:56:09;;;;;;;4.80;4.00;;;12.80;99.90;;;;;;5005940;28;20435;-63
2024/03/16 10:58:35;;;;;;;5.70;3.60;;;12.80;99.90;;;;;;5003296;28;20251;-66
2024/03/16 11:01:07;;;;;;;4.27;3.87;;;13.00;99.90;;;;;;5005819;28;20443;-62
2024/03/16 11:03:36;;;;;;;6.70;4.30;;;12.80;99.90;;;;;;5002902;28;20447;-63
2024/03/16 11:06:11;;;;;;;4.00;3.60;;;12.90;99.90;;;;;;5004532;28;20431;-61
2024/03/16 11:08:37;;;;;;;7.47;4.13;;;12.90;99.90;;;;;;5010381;28;20444;-62
2024/03/16 11:11:04;;;;;;;6.37;4.83;;;13.00;99.90;;;;;;5011391;28;20525;-64
2024/03/16 11:13:30;;;;;;;4.63;4.17;;;12.80;99.90;;;;;;5010881;28;20537;-61
2024/03/16 11:15:57;;;;;;;5.53;4.67;;;12.70;99.90;;;;;;5010819;28;20430;-62
2024/03/16 11:18:23;;;;;;;4.93;4.43;;;12.70;99.90;;;;;;5010467;28;20924;-63
2024/03/16 11:20:54;;;;;;;4.90;4.00;;;12.90;99.90;;;;;;5006489;28;20450;-62
2024/03/16 11:23:28;;;;;;;5.13;4.27;;;13.30;99.90;;;;;;5001151;28;20424;-61
2024/03/16 11:25:57;;;;;;;4.80;3.60;;;13.30;99.90;;;;;;5006758;28;20485;-60
2024/03/16 11:28:23;;;;;;;5.57;4.20;;;12.90;99.90;;;;;;5007999;28;20444;-60
2024/03/16 11:30:52;;;;;;;8.50;4.60;;;13.30;99.90;;;;;;5010076;28;20423;-61
2024/03/16 11:33:22;;;;;;;5.30;4.50;;;13.10;99.90;;;;;;5009326;28;20472;-57
2024/03/16 11:35:50;;;;;;;8.00;4.37;;;13.30;99.90;;;;;;5010373;28;20426;-61
2024/03/16 11:38:16;;;;;;;6.13;4.10;;;13.00;99.90;;;;;;5010105;28;20454;-61
2024/03/16 11:40:50;;;;;;;5.40;4.07;;;13.00;99.90;;;;;;5004624;28;20875;-61
2024/03/16 11:43:16;;;;;;;10.47;8.30;;;12.50;99.90;;;;;;5005203;28;20473;-63
2024/03/16 11:45:46;;;;;;;7.60;5.07;;;12.50;99.90;;;;;;5009681;28;20427;-67
2024/03/16 11:48:12;;;;;;;5.07;4.00;;;12.20;99.90;;;;;;5009317;28;20546;-65
2024/03/16 11:50:39;;;;;;;6.70;4.10;;;11.80;99.90;;;;;;5010542;28;20450;-63
2024/03/16 11:53:06;;;;;;;5.03;4.57;;;11.70;99.90;;;;;;5009842;28;20957;-60
2024/03/16 11:55:32;;;;;;;4.53;4.00;;;11.70;99.90;;;;;;5009938;28;20970;-63
2024/03/16 11:58:03;;;;;;;3.47;2.90;;;11.70;99.90;;;;;;5003709;28;20450;-63
2024/03/16 12:00:30;;;;;;;5.33;3.97;;;11.50;99.90;;;;;;5007296;28;20439;-58
2024/03/16 12:02:58;;;;;;;3.90;3.20;;;11.40;99.90;;;;;;5003498;28;20419;-58
2024/03/16 12:05:24;;;;;;;4.93;3.87;;;11.40;99.90;;;;;;5010737;28;20431;-58
2024/03/16 12:07:50;;;;;;;5.80;3.60;;;11.40;99.90;;;;;;5010486;28;20506;-61
2024/03/16 12:10:16;;;;;;;4.10;3.07;;;11.30;99.90;;;;;;5010628;28;20588;-62
2024/03/16 12:12:41;;;;;;;3.80;3.40;;;11.10;99.90;;;;;;5009684;28;20700;-59
2024/03/16 12:15:15;;;;;;;3.27;2.97;;;11.20;99.90;;;;;;5003762;28;20279;-59
2024/03/16 12:17:45;;;;;;;4.67;3.90;;;11.10;99.90;;;;;;5002580;28;20717;-58
2024/03/16 12:20:11;;;;;;;4.07;3.67;;;11.10;99.90;;;;;;5003800;28;20431;-62
2024/03/16 12:22:43;;;;;;;6.50;3.40;;;11.10;99.90;;;;;;5009723;28;20453;-60
2024/03/16 12:25:12;;;;;;;5.27;4.00;;;11.10;99.90;;;;;;5010176;28;20430;-68
2024/03/16 12:27:39;;;;;;;30.93;19.63;;;11.10;99.90;;;;;;5000915;28;20525;-64
2024/03/16 12:30:05;;;;;;;32.90;21.53;;;11.20;99.90;;;;;;5004219;28;20531;-62
2024/03/16 12:32:32;;;;;;;100.43;61.73;;;11.10;99.90;;;;;;5009393;28;20528;-65
2024/03/16 12:34:58;;;;;;;16.73;12.93;;;11.10;99.90;;;;;;5002130;28;20532;-65
2024/03/16 12:37:24;;;;;;;5.90;4.20;;;11.30;99.90;;;;;;5004844;28;21012;-64
2024/03/16 12:39:49;;;;;;;4.43;4.10;;;11.30;99.90;;;;;;5009847;28;20534;-64
2024/03/16 12:42:15;;;;;;;4.80;4.40;;;10.90;99.90;;;;;;5009845;28;20235;-64